createdAt,value
2023-01-15T00:00:12.478Z,16.60
2023-01-15T00:02:42.410Z,16.60
2023-01-15T00:05:12.339Z,16.50
2023-01-15T00:07:42.294Z,16.50
2023-01-15T00:10:13.238Z,16.40
2023-01-15T00:12:43.209Z,16.40
2023-01-15T00:15:14.597Z,16.40
2023-01-15T00:17:44.491Z,16.50
2023-01-15T00:20:15.027Z,16.50
2023-01-15T00:22:44.896Z,16.50
2023-01-15T00:25:34.387Z,16.50
2023-01-15T00:28:04.237Z,16.60
2023-01-15T00:30:34.368Z,16.60
2023-01-15T00:33:04.289Z,16.70
2023-01-15T00:35:34.087Z,16.70
2023-01-15T00:38:04.031Z,16.80
2023-01-15T00:40:33.884Z,16.90
2023-01-15T00:43:03.734Z,16.90
2023-01-15T00:45:33.548Z,17.00
2023-01-15T00:48:03.417Z,17.10
2023-01-15T00:50:33.904Z,17.20
2023-01-15T00:53:03.642Z,17.30
2023-01-15T00:55:33.460Z,17.40
2023-01-15T00:58:03.214Z,17.40
2023-01-15T01:00:33.152Z,17.60
2023-01-15T01:03:02.910Z,17.70
2023-01-15T01:05:34.461Z,17.80
2023-01-15T01:08:04.417Z,17.80
2023-01-15T01:10:34.492Z,18.00
2023-01-15T01:13:04.252Z,18.10
2023-01-15T01:15:37.021Z,18.20
2023-01-15T01:18:07.624Z,18.20
2023-01-15T01:20:40.077Z,18.30
2023-01-15T01:23:09.643Z,18.40
2023-01-15T01:25:39.621Z,18.50
2023-01-15T01:28:09.396Z,18.60
2023-01-15T01:30:41.366Z,18.80
2023-01-15T01:33:11.303Z,18.90
2023-01-15T01:35:41.050Z,18.90
2023-01-15T01:38:10.984Z,19.10
2023-01-15T01:40:43.309Z,19.20
2023-01-15T01:43:25.596Z,19.30
2023-01-15T01:45:55.548Z,19.40
2023-01-15T01:48:35.536Z,19.60
2023-01-15T01:51:07.886Z,19.60
2023-01-15T01:53:37.764Z,19.70
2023-01-15T01:56:13.202Z,19.80
2023-01-15T01:58:43.083Z,20.00
2023-01-15T02:01:13.054Z,20.10
2023-01-15T02:03:43.346Z,20.20
2023-01-15T02:06:15.113Z,20.30
2023-01-15T02:08:45.587Z,20.40
2023-01-15T02:11:22.803Z,20.60
2023-01-15T02:14:18.927Z,20.70
2023-01-15T02:17:18.342Z,20.80
2023-01-15T02:20:27.577Z,21.00
2023-01-15T02:23:36.563Z,21.20
2023-01-15T02:26:34.689Z,21.30
2023-01-15T02:29:10.407Z,21.40
2023-01-15T02:31:44.673Z,21.60
2023-01-15T02:34:33.492Z,21.60
2023-01-15T02:37:12.212Z,21.80
2023-01-15T02:39:45.079Z,21.90
2023-01-15T02:42:16.858Z,22.10
2023-01-15T02:44:51.135Z,22.20
2023-01-15T02:47:29.743Z,22.40
2023-01-15T02:50:02.854Z,22.60
2023-01-15T02:52:51.725Z,22.70
2023-01-15T02:55:30.894Z,22.90
2023-01-15T02:58:06.511Z,23.10
2023-01-15T03:00:41.892Z,23.30
2023-01-15T03:03:26.627Z,23.50
2023-01-15T03:06:07.564Z,23.60
2023-01-15T03:08:38.074Z,23.70
2023-01-15T03:11:17.866Z,23.90
2023-01-15T03:14:03.274Z,24.10
2023-01-15T03:16:44.054Z,24.40
2023-01-15T03:19:52.624Z,24.70
2023-01-15T03:22:40.262Z,24.90
2023-01-15T03:25:18.793Z,25.00
2023-01-15T03:27:48.782Z,25.10
2023-01-15T03:30:21.783Z,25.20
2023-01-15T03:32:52.052Z,25.30
2023-01-15T03:35:49.995Z,25.30
2023-01-15T03:38:27.300Z,25.30
2023-01-15T03:41:16.607Z,25.50
2023-01-15T03:44:18.067Z,25.60
2023-01-15T03:47:26.894Z,25.80
2023-01-15T03:50:20.084Z,25.90
2023-01-15T03:53:24.152Z,26.00
2023-01-15T03:55:59.785Z,26.10
2023-01-15T03:58:46.782Z,26.30
2023-01-15T04:01:22.426Z,26.40
2023-01-15T04:03:53.827Z,26.40
2023-01-15T04:06:26.828Z,26.50
2023-01-15T04:08:57.634Z,26.60
2023-01-15T04:11:28.891Z,26.80
2023-01-15T04:13:58.795Z,26.90
2023-01-15T04:16:32.110Z,27.00
2023-01-15T04:19:02.203Z,27.00
2023-01-15T04:21:32.825Z,27.20
2023-01-15T04:24:02.617Z,27.30
2023-01-15T04:26:32.418Z,27.40
2023-01-15T04:29:02.266Z,27.60
2023-01-15T04:31:34.191Z,27.70
2023-01-15T04:34:04.497Z,27.80
2023-01-15T04:36:37.172Z,27.90
2023-01-15T04:39:07.820Z,27.90
2023-01-15T04:41:57.251Z,28.00
2023-01-15T04:44:29.466Z,28.10
2023-01-15T04:46:59.658Z,28.20
2023-01-15T04:49:30.193Z,28.30
2023-01-15T04:52:00.130Z,28.40
2023-01-15T04:54:31.003Z,28.50
2023-01-15T04:57:01.069Z,28.60
2023-01-15T04:59:31.043Z,28.60
2023-01-15T05:02:06.315Z,28.70
2023-01-15T05:04:37.429Z,28.80
2023-01-15T05:07:08.043Z,28.80
2023-01-15T05:09:38.380Z,28.90
2023-01-15T05:12:08.682Z,29.00
2023-01-15T05:14:38.658Z,29.10
2023-01-15T05:17:08.805Z,29.20
2023-01-15T05:19:38.724Z,29.20
2023-01-15T05:22:08.880Z,29.30
2023-01-15T05:24:39.012Z,29.30
2023-01-15T05:27:08.838Z,29.40
2023-01-15T05:29:38.988Z,29.50
2023-01-15T05:32:09.682Z,29.50
2023-01-15T05:34:39.613Z,29.60
2023-01-15T05:37:09.380Z,29.70
2023-01-15T05:39:39.361Z,29.80
2023-01-15T05:42:09.860Z,29.90
2023-01-15T05:44:39.659Z,30.00
2023-01-15T05:47:09.570Z,30.10
2023-01-15T05:49:40.052Z,30.10
2023-01-15T05:52:10.141Z,30.20
2023-01-15T05:54:39.845Z,30.20
2023-01-15T05:57:12.599Z,30.30
2023-01-15T05:59:42.859Z,30.30
2023-01-15T06:02:12.736Z,30.40
2023-01-15T06:04:42.675Z,30.40
2023-01-15T06:07:12.472Z,30.40
2023-01-15T06:09:42.343Z,30.50
2023-01-15T06:12:12.230Z,30.50
2023-01-15T06:14:41.830Z,30.60
2023-01-15T06:17:12.026Z,30.60
2023-01-15T06:19:42.077Z,30.70
2023-01-15T06:22:11.829Z,30.80
2023-01-15T06:24:41.643Z,30.80
2023-01-15T06:27:11.405Z,30.80
2023-01-15T06:29:41.236Z,30.80
2023-01-15T06:32:10.956Z,30.80
2023-01-15T06:34:40.747Z,30.90
2023-01-15T06:37:10.510Z,30.90
2023-01-15T06:39:40.342Z,31.00
2023-01-15T06:42:30.603Z,31.00
2023-01-15T06:45:19.932Z,31.10
2023-01-15T06:47:50.556Z,31.20
2023-01-15T06:50:20.303Z,31.30
2023-01-15T06:52:50.112Z,31.40
2023-01-15T06:55:21.245Z,31.50
2023-01-15T06:57:51.078Z,31.50
2023-01-15T07:00:21.413Z,31.60
2023-01-15T07:02:51.947Z,31.60
2023-01-15T07:05:21.644Z,31.70
2023-01-15T07:07:51.442Z,31.70
2023-01-15T07:10:21.679Z,31.70
2023-01-15T07:12:51.514Z,31.80
2023-01-15T07:15:21.232Z,31.80
2023-01-15T07:17:51.244Z,31.90
2023-01-15T07:20:23.325Z,31.90
2023-01-15T07:22:54.294Z,32.00
2023-01-15T07:25:24.003Z,32.00
2023-01-15T07:27:53.809Z,32.00
2023-01-15T07:30:23.695Z,32.10
2023-01-15T07:32:53.727Z,32.10
2023-01-15T07:35:23.861Z,32.10
2023-01-15T07:37:56.689Z,32.20
2023-01-15T07:40:26.403Z,32.20
2023-01-15T07:43:15.865Z,32.30
2023-01-15T07:46:05.819Z,32.30
2023-01-15T07:48:55.378Z,32.30
2023-01-15T07:51:25.285Z,32.30
2023-01-15T07:53:54.964Z,32.40
2023-01-15T07:56:25.454Z,32.40
2023-01-15T07:58:55.364Z,32.40
2023-01-15T08:01:25.367Z,32.40
2023-01-15T08:03:55.320Z,32.40
2023-01-15T08:06:24.958Z,32.40
2023-01-15T08:08:54.790Z,32.40
2023-01-15T08:11:44.199Z,32.40
2023-01-15T08:14:33.784Z,32.40
2023-01-15T08:17:03.970Z,32.50
2023-01-15T08:19:34.103Z,32.50
2023-01-15T08:22:03.953Z,32.50
2023-01-15T08:24:34.002Z,32.50
2023-01-15T08:27:03.923Z,32.50
2023-01-15T08:29:33.833Z,32.50
2023-01-15T08:32:03.758Z,32.50
2023-01-15T08:34:33.773Z,32.50
2023-01-15T08:37:03.568Z,32.60
2023-01-15T08:39:33.638Z,32.60
2023-01-15T08:42:03.505Z,32.50
2023-01-15T08:44:33.441Z,32.50
2023-01-15T08:47:03.454Z,32.50
2023-01-15T08:49:33.326Z,32.50
2023-01-15T08:52:03.120Z,32.50
2023-01-15T08:54:33.143Z,32.50
2023-01-15T08:57:03.997Z,32.60
2023-01-15T08:59:33.941Z,32.60
2023-01-15T09:02:03.865Z,32.60
2023-01-15T09:04:33.900Z,32.60
2023-01-15T09:07:04.170Z,32.60
2023-01-15T09:09:34.140Z,32.50
2023-01-15T09:12:04.040Z,32.50
2023-01-15T09:14:59.547Z,32.50
2023-01-15T09:17:23.927Z,32.50
2023-01-15T09:19:55.363Z,32.50
2023-01-15T09:22:25.121Z,32.40
2023-01-15T09:24:54.943Z,32.40
2023-01-15T09:27:24.933Z,32.40
2023-01-15T09:29:55.317Z,32.40
2023-01-15T09:32:25.572Z,32.40
2023-01-15T09:34:55.565Z,32.40
2023-01-15T09:37:25.386Z,32.40
2023-01-15T09:39:55.145Z,32.40
2023-01-15T09:42:50.452Z,32.40
2023-01-15T09:45:39.090Z,32.40
2023-01-15T09:48:26.760Z,32.40
2023-01-15T09:51:03.429Z,32.40
2023-01-15T09:54:08.810Z,32.40
2023-01-15T09:56:40.395Z,32.30
2023-01-15T09:59:41.411Z,32.20
2023-01-15T10:02:31.955Z,32.20
2023-01-15T10:05:25.593Z,32.10
2023-01-15T10:08:29.083Z,32.10
2023-01-15T10:11:06.834Z,32.10
2023-01-15T10:13:51.078Z,32.00
2023-01-15T10:16:25.569Z,32.00
2023-01-15T10:18:55.919Z,32.00
2023-01-15T10:22:00.543Z,32.00
2023-01-15T10:24:41.671Z,31.90
2023-01-15T10:27:25.335Z,31.90
2023-01-15T10:30:17.274Z,31.90
2023-01-15T10:33:02.318Z,31.80
2023-01-15T10:35:57.997Z,31.70
2023-01-15T10:38:39.239Z,31.60
2023-01-15T10:41:27.000Z,31.50
2023-01-15T10:44:20.694Z,31.40
2023-01-15T10:46:58.648Z,31.30
2023-01-15T10:49:32.595Z,31.20
2023-01-15T10:52:27.504Z,31.10
2023-01-15T10:55:08.950Z,30.90
2023-01-15T10:58:11.205Z,30.80
2023-01-15T11:00:42.261Z,30.60
2023-01-15T11:03:19.902Z,30.50
2023-01-15T11:05:49.642Z,30.30
2023-01-15T11:09:07.409Z,30.10
2023-01-15T11:12:09.164Z,30.00
2023-01-15T11:15:03.976Z,29.70
2023-01-15T11:18:05.465Z,29.50
2023-01-15T11:20:48.100Z,29.30
2023-01-15T11:23:22.369Z,29.10
2023-01-15T11:26:01.811Z,28.90
2023-01-15T11:28:44.982Z,28.80
2023-01-15T11:31:16.055Z,28.60
2023-01-15T11:34:01.925Z,28.40
2023-01-15T11:36:33.681Z,28.20
2023-01-15T11:39:08.877Z,28.00
2023-01-15T11:41:58.269Z,27.90
2023-01-15T11:44:47.724Z,27.70
2023-01-15T11:47:40.503Z,27.60
2023-01-15T11:50:49.588Z,27.40
2023-01-15T11:53:30.144Z,27.30
2023-01-15T11:56:08.404Z,27.20
2023-01-15T11:58:59.191Z,27.00
2023-01-15T12:01:35.331Z,26.90
2023-01-15T12:04:10.284Z,26.80
2023-01-15T12:06:43.262Z,26.60
2023-01-15T12:09:36.223Z,26.30
2023-01-15T12:12:34.079Z,25.80
2023-01-15T12:15:43.242Z,25.70
2023-01-15T12:18:46.746Z,25.50
2023-01-15T12:21:43.012Z,25.40
2023-01-15T12:24:39.982Z,25.40
2023-01-15T12:27:34.836Z,25.30
2023-01-15T12:30:29.286Z,25.30
2023-01-15T12:33:17.845Z,25.20
2023-01-15T12:35:58.140Z,25.20
2023-01-15T12:38:43.352Z,25.10
2023-01-15T12:41:19.767Z,25.10
2023-01-15T12:44:15.156Z,24.90
2023-01-15T12:46:47.603Z,24.70
2023-01-15T12:49:42.233Z,24.60
2023-01-15T12:52:26.254Z,24.50
2023-01-15T12:55:09.178Z,24.40
2023-01-15T12:57:44.634Z,24.30
2023-01-15T13:00:32.903Z,24.30
2023-01-15T13:03:26.493Z,24.20
2023-01-15T13:06:04.386Z,24.20
2023-01-15T13:09:04.542Z,24.20
2023-01-15T13:11:35.220Z,24.10
2023-01-15T13:14:05.135Z,24.10
2023-01-15T13:16:51.112Z,24.00
2023-01-15T13:19:44.588Z,23.90
2023-01-15T13:22:20.786Z,23.80
2023-01-15T13:25:33.110Z,23.70
2023-01-15T13:28:39.835Z,23.60
2023-01-15T13:31:36.660Z,23.60
2023-01-15T13:34:19.253Z,23.50
2023-01-15T13:36:50.626Z,23.50
2023-01-15T13:39:23.643Z,23.50
2023-01-15T13:42:15.428Z,23.40
2023-01-15T13:44:52.633Z,23.30
2023-01-15T13:47:27.732Z,23.30
2023-01-15T13:50:01.674Z,23.30
2023-01-15T13:52:37.688Z,23.20
2023-01-15T13:55:25.288Z,23.10
2023-01-15T13:57:59.932Z,23.00
2023-01-15T14:00:38.932Z,22.90
2023-01-15T14:03:34.045Z,22.90
2023-01-15T14:06:09.669Z,22.80
2023-01-15T14:08:47.773Z,22.70
2023-01-15T14:11:37.469Z,22.60
2023-01-15T14:14:39.209Z,22.60
2023-01-15T14:17:48.138Z,22.50
2023-01-15T14:20:40.193Z,22.40
2023-01-15T14:23:57.846Z,22.30
2023-01-15T14:26:50.983Z,22.20
2023-01-15T14:29:55.075Z,22.20
2023-01-15T14:33:04.153Z,22.10
2023-01-15T14:35:39.723Z,22.10
2023-01-15T14:38:18.583Z,22.00
2023-01-15T14:41:06.507Z,21.90
2023-01-15T14:43:43.201Z,21.90
2023-01-15T14:46:35.954Z,21.80
2023-01-15T14:49:12.405Z,21.80
2023-01-15T14:51:52.947Z,21.70
2023-01-15T14:54:23.382Z,21.70
2023-01-15T14:57:02.646Z,21.70
2023-01-15T14:59:50.769Z,21.70
2023-01-15T15:02:36.180Z,21.60
2023-01-15T15:05:12.772Z,21.60
2023-01-15T15:07:46.543Z,21.50
2023-01-15T15:10:29.434Z,21.50
2023-01-15T15:13:21.776Z,21.40
2023-01-15T15:16:10.627Z,21.40
2023-01-15T15:19:03.400Z,21.40
2023-01-15T15:21:39.547Z,21.30
2023-01-15T15:24:28.654Z,21.20
2023-01-15T15:26:58.906Z,21.10
2023-01-15T15:29:28.701Z,21.00
2023-01-15T15:32:02.045Z,20.90
2023-01-15T15:34:36.362Z,20.80
2023-01-15T15:37:14.785Z,20.70
2023-01-15T15:39:53.576Z,20.60
2023-01-15T15:43:04.782Z,20.50
2023-01-15T15:45:54.299Z,20.30
2023-01-15T15:48:44.518Z,20.30
2023-01-15T15:51:38.628Z,20.20
2023-01-15T15:54:19.893Z,20.20
2023-01-15T15:57:01.359Z,20.20
2023-01-15T15:59:39.464Z,20.00
2023-01-15T16:02:20.982Z,19.90
2023-01-15T16:04:56.858Z,19.80
2023-01-15T16:07:36.203Z,19.80
2023-01-15T16:10:17.166Z,19.80
2023-01-15T16:12:52.986Z,19.80
2023-01-15T16:15:32.467Z,19.90
2023-01-15T16:18:04.531Z,19.90
2023-01-15T16:20:35.593Z,19.90
2023-01-15T16:23:08.431Z,20.00
2023-01-15T16:25:44.390Z,20.00
2023-01-15T16:28:45.119Z,20.00
2023-01-15T16:31:17.451Z,19.90
2023-01-15T16:33:49.043Z,19.90
2023-01-15T16:36:19.306Z,19.80
2023-01-15T16:38:51.938Z,19.80
2023-01-15T16:41:27.674Z,19.70
2023-01-15T16:44:07.386Z,19.70
2023-01-15T16:46:50.124Z,19.70
2023-01-15T16:49:32.874Z,19.70
2023-01-15T16:52:05.246Z,19.70
2023-01-15T16:54:44.349Z,19.70
2023-01-15T16:57:35.451Z,19.70
2023-01-15T17:00:09.424Z,19.70
2023-01-15T17:02:48.106Z,19.70
2023-01-15T17:05:24.198Z,19.70
2023-01-15T17:07:56.578Z,19.60
2023-01-15T17:10:29.159Z,19.60
2023-01-15T17:13:00.500Z,19.60
2023-01-15T17:15:38.037Z,19.50
2023-01-15T17:18:24.035Z,19.50
2023-01-15T17:20:53.786Z,19.50
2023-01-15T17:23:28.149Z,19.50
2023-01-15T17:25:58.693Z,19.50
2023-01-15T17:28:28.782Z,19.50
2023-01-15T17:31:03.742Z,19.40
2023-01-15T17:33:33.689Z,19.40
2023-01-15T17:36:03.479Z,19.30
2023-01-15T17:38:33.454Z,19.30
2023-01-15T17:41:05.321Z,19.30
2023-01-15T17:43:35.191Z,19.30
2023-01-15T17:46:05.216Z,19.20
2023-01-15T17:48:35.100Z,19.20
2023-01-15T17:51:07.003Z,19.20
2023-01-15T17:53:37.870Z,19.20
2023-01-15T17:56:27.813Z,19.20
2023-01-15T17:59:17.314Z,19.20
2023-01-15T18:02:08.835Z,19.20
2023-01-15T18:05:07.751Z,19.20
2023-01-15T18:07:42.628Z,19.20
2023-01-15T18:10:20.729Z,19.20
2023-01-15T18:12:51.058Z,19.10
2023-01-15T18:15:21.770Z,19.10
2023-01-15T18:17:51.566Z,19.10
2023-01-15T18:20:21.553Z,19.10
2023-01-15T18:22:51.496Z,19.00
2023-01-15T18:25:21.524Z,19.00
2023-01-15T18:27:52.230Z,19.00
2023-01-15T18:30:22.078Z,19.10
2023-01-15T18:32:52.272Z,19.10
2023-01-15T18:35:24.560Z,19.10
2023-01-15T18:37:54.434Z,19.10
2023-01-15T18:40:29.050Z,19.10
2023-01-15T18:43:19.398Z,19.10
2023-01-15T18:46:10.121Z,19.00
2023-01-15T18:48:39.999Z,19.00
2023-01-15T18:51:13.083Z,18.90
2023-01-15T18:53:42.900Z,18.90
2023-01-15T18:56:12.712Z,18.80
2023-01-15T18:58:44.681Z,18.70
2023-01-15T19:01:14.580Z,18.70
2023-01-15T19:03:44.480Z,18.60
2023-01-15T19:06:15.005Z,18.50
2023-01-15T19:08:44.943Z,18.50
2023-01-15T19:11:16.267Z,18.50
2023-01-15T19:14:05.639Z,18.50
2023-01-15T19:16:55.125Z,18.40
2023-01-15T19:19:24.756Z,18.40
2023-01-15T19:22:14.285Z,18.30
2023-01-15T19:24:44.180Z,18.30
2023-01-15T19:27:13.972Z,18.30
2023-01-15T19:29:44.010Z,18.30
2023-01-15T19:32:13.879Z,18.30
2023-01-15T19:34:44.117Z,18.30
2023-01-15T19:37:14.057Z,18.20
2023-01-15T19:39:43.786Z,18.10
2023-01-15T19:42:35.566Z,18.00
2023-01-15T19:45:25.242Z,18.00
2023-01-15T19:48:14.687Z,17.90
2023-01-15T19:50:47.064Z,17.90
2023-01-15T19:53:17.206Z,17.90
2023-01-15T19:55:47.847Z,17.80
2023-01-15T19:58:18.302Z,17.80
2023-01-15T20:00:54.816Z,17.80
2023-01-15T20:03:24.632Z,17.70
2023-01-15T20:05:54.750Z,17.70
2023-01-15T20:08:24.820Z,17.70
2023-01-15T20:10:54.547Z,17.70
2023-01-15T20:13:45.753Z,17.70
2023-01-15T20:16:17.834Z,17.70
2023-01-15T20:18:50.309Z,17.70
2023-01-15T20:21:21.014Z,17.60
2023-01-15T20:23:50.851Z,17.60
2023-01-15T20:26:20.686Z,17.60
2023-01-15T20:28:51.368Z,17.50
2023-01-15T20:31:21.905Z,17.50
2023-01-15T20:33:52.113Z,17.50
2023-01-15T20:36:22.275Z,17.40
2023-01-15T20:38:52.032Z,17.40
2023-01-15T20:41:41.346Z,17.40
2023-01-15T20:44:32.970Z,17.40
2023-01-15T20:47:02.734Z,17.40
2023-01-15T20:49:34.191Z,17.30
2023-01-15T20:52:03.930Z,17.30
2023-01-15T20:54:33.755Z,17.30
2023-01-15T20:57:03.520Z,17.20
2023-01-15T20:59:33.315Z,17.20
2023-01-15T21:02:03.157Z,17.30
2023-01-15T21:04:33.297Z,17.20
2023-01-15T21:07:03.073Z,17.20
2023-01-15T21:09:33.408Z,17.30
2023-01-15T21:12:03.172Z,17.30
2023-01-15T21:14:33.667Z,17.30
2023-01-15T21:17:03.393Z,17.40
2023-01-15T21:19:33.366Z,17.30
2023-01-15T21:22:03.164Z,17.20
2023-01-15T21:24:33.560Z,17.20
2023-01-15T21:27:03.634Z,17.10
2023-01-15T21:29:33.422Z,17.10
2023-01-15T21:32:03.373Z,16.90
2023-01-15T21:34:33.297Z,16.90
2023-01-15T21:37:03.340Z,16.90
2023-01-15T21:39:33.236Z,16.90
2023-01-15T21:42:22.618Z,16.90
2023-01-15T21:44:52.453Z,16.90
2023-01-15T21:47:22.703Z,16.90
2023-01-15T21:49:52.682Z,16.90
2023-01-15T21:52:23.013Z,16.90
2023-01-15T21:54:53.958Z,17.00
2023-01-15T21:57:24.189Z,17.00
2023-01-15T21:59:54.077Z,17.00
2023-01-15T22:02:25.045Z,17.00
2023-01-15T22:04:55.091Z,17.00
2023-01-15T22:07:24.929Z,17.00
2023-01-15T22:09:54.813Z,17.00
2023-01-15T22:12:24.421Z,17.00
2023-01-15T22:14:55.622Z,17.10
2023-01-15T22:17:25.814Z,17.10
2023-01-15T22:19:55.557Z,17.10
2023-01-15T22:22:27.523Z,17.10
2023-01-15T22:24:57.368Z,17.00
2023-01-15T22:27:28.309Z,17.00
2023-01-15T22:29:58.218Z,17.00
2023-01-15T22:32:28.003Z,17.00
2023-01-15T22:34:57.955Z,17.00
2023-01-15T22:37:27.998Z,16.90
2023-01-15T22:39:57.786Z,17.00
2023-01-15T22:42:29.087Z,16.90
2023-01-15T22:45:01.564Z,16.90
2023-01-15T22:47:31.987Z,16.90
2023-01-15T22:50:01.751Z,16.90
2023-01-15T22:52:31.755Z,16.90
2023-01-15T22:55:01.924Z,16.80
2023-01-15T22:57:32.999Z,16.80
2023-01-15T23:00:02.979Z,16.80
2023-01-15T23:02:52.315Z,16.80
2023-01-15T23:05:22.340Z,16.80
2023-01-15T23:07:52.451Z,16.80
2023-01-15T23:10:22.210Z,16.70
2023-01-15T23:12:51.963Z,16.80
2023-01-15T23:15:22.908Z,16.80
2023-01-15T23:17:53.445Z,16.80
2023-01-15T23:20:23.423Z,16.80
2023-01-15T23:22:53.280Z,16.80
2023-01-15T23:25:23.047Z,16.80
2023-01-15T23:27:52.855Z,16.80
2023-01-15T23:30:22.996Z,16.80
2023-01-15T23:32:52.971Z,16.80
2023-01-15T23:35:23.035Z,16.80
2023-01-15T23:37:53.240Z,16.80
2023-01-15T23:40:23.067Z,16.80
2023-01-15T23:43:12.578Z,16.80
2023-01-15T23:46:01.897Z,16.80
2023-01-15T23:48:32.077Z,16.80
2023-01-15T23:51:01.882Z,16.80
2023-01-15T23:53:31.565Z,16.70
2023-01-15T23:56:06.098Z,16.70
2023-01-15T23:58:36.045Z,16.70
